Station Historical Data
Daily Summary for July 25, 2017 Units:  Both    English   Metric
« Previous Day
Next Day »
Daily Weekly Monthly Yearly Custom
  High: Low: Average:
Temperature: 70.4 °F /  21.3 °C 58.4 °F /  14.7 °C 63.8 °F /  17.7 °C
Dew Point: 58.8 °F /  14.9 °C 54.5 °F /  12.5 °C 57 °F /  13.9 °C
Humidity: 91% 64% 79%
Wind Speed: 9.0mph /  14.5km/h - 1.6mph /  2.6km/h
Wind Gust: 14.0mph /  22.5km/h - -
Wind- - South
Pressure: 30.23 in /  1023.6 hPa 29.96 in /  1014.4 hPa -
Precipitation: 0.02 in /  0.51 mm    
Historical Graphs
 
 
Tabular Data for July 25, 2017
Time Temperature Dew Point Pressure Wind Wind Speed Wind Gust Humidity Rainfall Rate (Hourly)
00:00 62.1 °F /  16.7 °C 58.8 °F /  14.9 °C 29.96in /  1014.4hPa WNW 1.0mph /  1.6km/h 7.0mph /  11.3km/h 89% 0.00in /  0mm
00:05 62.1 °F /  16.7 °C 58.8 °F /  14.9 °C 29.96in /  1014.4hPa NW 2.0mph /  3.2km/h 7.0mph /  11.3km/h 89% 0.00in /  0mm
00:10 62.0 °F /  16.7 °C 58.7 °F /  14.8 °C 29.96in /  1014.4hPa NNW 2.0mph /  3.2km/h 5.0mph /  8km/h 89% 0.00in /  0mm
00:15 62.1 °F /  16.7 °C 58.8 °F /  14.9 °C 29.96in /  1014.4hPa NW 3.0mph /  4.8km/h 5.0mph /  8km/h 89% 0.00in /  0mm
00:20 62.1 °F /  16.7 °C 58.8 °F /  14.9 °C 29.97in /  1014.8hPa Calm   4.0mph /  6.4km/h 89% 0.00in /  0mm
00:25 62.1 °F /  16.7 °C 58.8 °F /  14.9 °C 29.97in /  1014.8hPa NW 2.0mph /  3.2km/h 4.0mph /  6.4km/h 89% 0.00in /  0mm
00:30 62.0 °F /  16.7 °C 58.7 °F /  14.8 °C 29.97in /  1014.8hPa NW 2.0mph /  3.2km/h 5.0mph /  8km/h 89% 0.00in /  0mm
00:35 62.1 °F /  16.7 °C 58.5 °F /  14.7 °C 29.97in /  1014.8hPa NW 3.0mph /  4.8km/h 8.0mph /  12.9km/h 88% 0.00in /  0mm
00:40 61.9 °F /  16.6 °C 58.3 °F /  14.6 °C 29.97in /  1014.8hPa WNW 1.0mph /  1.6km/h 9.0mph /  14.5km/h 88% 0.00in /  0mm
00:45 61.9 °F /  16.6 °C 58.0 °F /  14.4 °C 29.97in /  1014.8hPa NNW 3.0mph /  4.8km/h 7.0mph /  11.3km/h 87% 0.00in /  0mm
00:50 61.9 °F /  16.6 °C 58.3 °F /  14.6 °C 29.98in /  1015.1hPa NW 3.0mph /  4.8km/h 7.0mph /  11.3km/h 88% 0.00in /  0mm
00:55 61.9 °F /  16.6 °C 58.3 °F /  14.6 °C 29.98in /  1015.1hPa NW 1.0mph /  1.6km/h 5.0mph /  8km/h 88% 0.00in /  0mm
01:00 61.9 °F /  16.6 °C 58.3 °F /  14.6 °C 29.98in /  1015.1hPa WNW 1.0mph /  1.6km/h 3.0mph /  4.8km/h 88% 0.00in /  0mm
01:05 62.0 °F /  16.7 °C 58.4 °F /  14.7 °C 29.98in /  1015.1hPa Calm   4.0mph /  6.4km/h 88% 0.00in /  0mm
01:10 62.0 °F /  16.7 °C 58.4 °F /  14.7 °C 29.98in /  1015.1hPa Calm   3.0mph /  4.8km/h 88% 0.00in /  0mm
01:15 62.0 °F /  16.7 °C 58.4 °F /  14.7 °C 29.99in /  1015.5hPa Calm   4.0mph /  6.4km/h 88% 0.00in /  0mm
01:20 62.0 °F /  16.7 °C 58.4 °F /  14.7 °C 29.99in /  1015.5hPa NW 1.0mph /  1.6km/h 4.0mph /  6.4km/h 88% 0.00in /  0mm
01:25 62.0 °F /  16.7 °C 58.4 °F /  14.7 °C 29.99in /  1015.5hPa NNW 1.0mph /  1.6km/h 7.0mph /  11.3km/h 88% 0.00in /  0mm
01:30 61.9 °F /  16.6 °C 58.3 °F /  14.6 °C 29.99in /  1015.5hPa NNW 3.0mph /  4.8km/h 7.0mph /  11.3km/h 88% 0.00in /  0mm
01:35 61.8 °F /  16.6 °C 58.2 °F /  14.6 °C 29.99in /  1015.5hPa NNW 3.0mph /  4.8km/h 7.0mph /  11.3km/h 88% 0.00in /  0mm
01:40 61.7 °F /  16.5 °C 58.1 °F /  14.5 °C 29.99in /  1015.5hPa NW 1.0mph /  1.6km/h 3.0mph /  4.8km/h 88% 0.00in /  0mm
01:45 61.7 °F /  16.5 °C 58.1 °F /  14.5 °C 29.99in /  1015.5hPa NW 1.0mph /  1.6km/h 2.0mph /  3.2km/h 88% 0.00in /  0mm
01:50 61.7 °F /  16.5 °C 58.1 °F /  14.5 °C 30.00in /  1015.8hPa Calm   2.0mph /  3.2km/h 88% 0.00in /  0mm
01:55 61.7 °F /  16.5 °C 58.1 °F /  14.5 °C 30.00in /  1015.8hPa Calm   2.0mph /  3.2km/h 88% 0.00in /  0mm
02:00 61.8 °F /  16.6 °C 58.2 °F /  14.6 °C 30.00in /  1015.8hPa NNW 1.0mph /  1.6km/h 3.0mph /  4.8km/h 88% 0.00in /  0mm
02:05 61.8 °F /  16.6 °C 58.2 °F /  14.6 °C 30.00in /  1015.8hPa North 8.0mph /  12.9km/h 8.0mph /  12.9km/h 88% 0.00in /  0mm
02:10 61.8 °F /  16.6 °C 58.2 °F /  14.6 °C 30.00in /  1015.8hPa North 3.0mph /  4.8km/h 8.0mph /  12.9km/h 88% 0.00in /  0mm
02:15 61.8 °F /  16.6 °C 58.2 °F /  14.6 °C 30.00in /  1015.8hPa WNW 3.0mph /  4.8km/h 5.0mph /  8km/h 88% 0.00in /  0mm
02:20 61.7 °F /  16.5 °C 58.1 °F /  14.5 °C 30.00in /  1015.8hPa NNW 2.0mph /  3.2km/h 5.0mph /  8km/h 88% 0.00in /  0mm
02:25 61.7 °F /  16.5 °C 58.1 °F /  14.5 °C 30.00in /  1015.8hPa NW 1.0mph /  1.6km/h 3.0mph /  4.8km/h 88% 0.00in /  0mm
02:30 61.7 °F /  16.5 °C 58.1 °F /  14.5 °C 30.00in /  1015.8hPa NNW 2.0mph /  3.2km/h 5.0mph /  8km/h 88% 0.00in /  0mm
02:35 61.6 °F /  16.4 °C 58.0 °F /  14.4 °C 30.00in /  1015.8hPa NNW 1.0mph /  1.6km/h 5.0mph /  8km/h 88% 0.00in /  0mm
02:40 61.6 °F /  16.4 °C 58.3 °F /  14.6 °C 30.00in /  1015.8hPa Calm     89% 0.00in /  0mm
02:45 61.6 °F /  16.4 °C 58.3 °F /  14.6 °C 30.00in /  1015.8hPa Calm     89% 0.00in /  0mm
02:50 61.6 °F /  16.4 °C 58.3 °F /  14.6 °C 30.00in /  1015.8hPa NNW 1.0mph /  1.6km/h 3.0mph /  4.8km/h 89% 0.00in /  0mm
02:55 61.6 °F /  16.4 °C 58.3 °F /  14.6 °C 30.00in /  1015.8hPa Calm   2.0mph /  3.2km/h 89% 0.00in /  0mm
03:00 61.4 °F /  16.3 °C 58.1 °F /  14.5 °C 30.00in /  1015.8hPa Calm   3.0mph /  4.8km/h 89% 0.00in /  0mm
03:05 61.5 °F /  16.4 °C 58.2 °F /  14.6 °C 30.00in /  1015.8hPa Calm   1.0mph /  1.6km/h 89% 0.00in /  0mm
03:10 61.4 °F /  16.3 °C 58.4 °F /  14.7 °C 30.01in /  1016.1hPa Calm   2.0mph /  3.2km/h 90% 0.00in /  0mm
03:15 61.5 °F /  16.4 °C 58.5 °F /  14.7 °C 30.01in /  1016.1hPa Calm   2.0mph /  3.2km/h 90% 0.00in /  0mm
03:20 61.3 °F /  16.3 °C 58.3 °F /  14.6 °C 30.01in /  1016.1hPa NW 1.0mph /  1.6km/h 5.0mph /  8km/h 90% 0.00in /  0mm
03:25 61.3 °F /  16.3 °C 58.3 °F /  14.6 °C 30.01in /  1016.1hPa NW 1.0mph /  1.6km/h 5.0mph /  8km/h 90% 0.00in /  0mm
03:30 61.3 °F /  16.3 °C 58.3 °F /  14.6 °C 30.01in /  1016.1hPa North 1.0mph /  1.6km/h 3.0mph /  4.8km/h 90% 0.00in /  0mm
03:35 61.4 °F /  16.3 °C 58.4 °F /  14.7 °C 30.01in /  1016.1hPa Calm   3.0mph /  4.8km/h 90% 0.00in /  0mm
03:40 61.2 °F /  16.2 °C 58.2 °F /  14.6 °C 30.01in /  1016.1hPa Calm     90% 0.00in /  0mm
03:45 61.3 °F /  16.3 °C 58.3 °F /  14.6 °C 30.01in /  1016.1hPa Calm     90% 0.00in /  0mm
03:50 61.3 °F /  16.3 °C 58.3 °F /  14.6 °C 30.02in /  1016.5hPa Calm     90% 0.00in /  0mm
03:55 61.3 °F /  16.3 °C 58.3 °F /  14.6 °C 30.02in /  1016.5hPa Calm   3.0mph /  4.8km/h 90% 0.00in /  0mm
04:00 61.2 °F /  16.2 °C 58.2 °F /  14.6 °C 30.02in /  1016.5hPa Calm   4.0mph /  6.4km/h 90% 0.00in /  0mm
04:05 61.1 °F /  16.2 °C 58.1 °F /  14.5 °C 30.02in /  1016.5hPa Calm   3.0mph /  4.8km/h 90% 0.00in /  0mm
04:10 61.2 °F /  16.2 °C 58.2 °F /  14.6 °C 30.03in /  1016.8hPa Calm   1.0mph /  1.6km/h 90% 0.00in /  0mm
04:15 61.1 °F /  16.2 °C 58.1 °F /  14.5 °C 30.03in /  1016.8hPa Calm   3.0mph /  4.8km/h 90% 0.00in /  0mm
04:20 61.0 °F /  16.1 °C 58.0 °F /  14.4 °C 30.03in /  1016.8hPa NNW 1.0mph /  1.6km/h 6.0mph /  9.7km/h 90% 0.00in /  0mm
04:25 60.9 °F /  16.1 °C 57.9 °F /  14.4 °C 30.03in /  1016.8hPa NW 3.0mph /  4.8km/h 12.0mph /  19.3km/h 90% 0.00in /  0mm
04:30 60.9 °F /  16.1 °C 57.9 °F /  14.4 °C 30.04in /  1017.2hPa NW 2.0mph /  3.2km/h 6.0mph /  9.7km/h 90% 0.00in /  0mm
04:35 60.9 °F /  16.1 °C 57.9 °F /  14.4 °C 30.04in /  1017.2hPa NW 4.0mph /  6.4km/h 6.0mph /  9.7km/h 90% 0.00in /  0mm
04:40 60.8 °F /  16 °C 57.5 °F /  14.2 °C 30.04in /  1017.2hPa NNW 2.0mph /  3.2km/h 5.0mph /  8km/h 89% 0.00in /  0mm
04:45 60.8 °F /  16 °C 57.5 °F /  14.2 °C 30.04in /  1017.2hPa NNW 1.0mph /  1.6km/h 5.0mph /  8km/h 89% 0.00in /  0mm
04:50 60.8 °F /  16 °C 57.5 °F /  14.2 °C 30.05in /  1017.5hPa North 1.0mph /  1.6km/h 6.0mph /  9.7km/h 89% 0.00in /  0mm
04:55 60.8 °F /  16 °C 57.5 °F /  14.2 °C 30.05in /  1017.5hPa North 2.0mph /  3.2km/h 5.0mph /  8km/h 89% 0.00in /  0mm
05:00 60.8 °F /  16 °C 57.2 °F /  14 °C 30.05in /  1017.5hPa North 1.0mph /  1.6km/h 7.0mph /  11.3km/h 88% 0.00in /  0mm
05:05 60.8 °F /  16 °C 57.2 °F /  14 °C 30.05in /  1017.5hPa NNW 1.0mph /  1.6km/h 3.0mph /  4.8km/h 88% 0.00in /  0mm
05:10 60.9 °F /  16.1 °C 57.0 °F /  13.9 °C 30.05in /  1017.5hPa NW 1.0mph /  1.6km/h 4.0mph /  6.4km/h 87% 0.00in /  0mm
05:15 60.9 °F /  16.1 °C 57.0 °F /  13.9 °C 30.05in /  1017.5hPa NNW 1.0mph /  1.6km/h 4.0mph /  6.4km/h 87% 0.00in /  0mm
05:20 60.8 °F /  16 °C 56.9 °F /  13.8 °C 30.05in /  1017.5hPa NNW 2.0mph /  3.2km/h 5.0mph /  8km/h 87% 0.00in /  0mm
05:25 60.8 °F /  16 °C 56.6 °F /  13.7 °C 30.06in /  1017.8hPa Calm   6.0mph /  9.7km/h 86% 0.00in /  0mm
05:30 60.7 °F /  15.9 °C 56.5 °F /  13.6 °C 30.06in /  1017.8hPa NW 3.0mph /  4.8km/h 6.0mph /  9.7km/h 86% 0.00in /  0mm
05:35 60.5 °F /  15.8 °C 56.6 °F /  13.7 °C 30.06in /  1017.8hPa NNW 2.0mph /  3.2km/h 6.0mph /  9.7km/h 87% 0.01in /  0.25mm
05:40 60.5 °F /  15.8 °C 56.6 °F /  13.7 °C 30.06in /  1017.8hPa NW 2.0mph /  3.2km/h 5.0mph /  8km/h 87% 0.01in /  0.25mm
05:45 60.4 °F /  15.8 °C 56.5 °F /  13.6 °C 30.06in /  1017.8hPa NW 1.0mph /  1.6km/h 3.0mph /  4.8km/h 87% 0.01in /  0.25mm
05:50 60.3 °F /  15.7 °C 56.4 °F /  13.6 °C 30.06in /  1017.8hPa NW 1.0mph /  1.6km/h 3.0mph /  4.8km/h 87% 0.01in /  0.25mm
05:55 60.3 °F /  15.7 °C 56.7 °F /  13.7 °C 30.06in /  1017.8hPa Calm   2.0mph /  3.2km/h 88% 0.01in /  0.25mm
06:00 60.3 °F /  15.7 °C 56.7 °F /  13.7 °C 30.07in /  1018.2hPa NW 1.0mph /  1.6km/h 2.0mph /  3.2km/h 88% 0.01in /  0.25mm
06:05 60.2 °F /  15.7 °C 56.6 °F /  13.7 °C 30.07in /  1018.2hPa Calm   4.0mph /  6.4km/h 88% 0.01in /  0.25mm
06:10 60.2 °F /  15.7 °C 56.6 °F /  13.7 °C 30.07in /  1018.2hPa Calm   3.0mph /  4.8km/h 88% 0.01in /  0.25mm
06:15 60.1 °F /  15.6 °C 56.5 °F /  13.6 °C 30.08in /  1018.5hPa North 2.0mph /  3.2km/h 8.0mph /  12.9km/h 88% 0.01in /  0.25mm
06:20 59.8 °F /  15.4 °C 56.2 °F /  13.4 °C 30.08in /  1018.5hPa North 1.0mph /  1.6km/h 6.0mph /  9.7km/h 88% 0.01in /  0.25mm
06:25 59.7 °F /  15.4 °C 56.5 °F /  13.6 °C 30.08in /  1018.5hPa NNW 3.0mph /  4.8km/h 7.0mph /  11.3km/h 89% 0.01in /  0.25mm
06:30 59.6 °F /  15.3 °C 56.4 °F /  13.6 °C 30.09in /  1018.8hPa NW 1.0mph /  1.6km/h 6.0mph /  9.7km/h 89% 0.01in /  0.25mm
06:35 59.5 °F /  15.3 °C 56.6 °F /  13.7 °C 30.09in /  1018.8hPa NNW 2.0mph /  3.2km/h 6.0mph /  9.7km/h 90% 0.00in /  0mm
06:40 59.5 °F /  15.3 °C 56.6 °F /  13.7 °C 30.09in /  1018.8hPa NNW 1.0mph /  1.6km/h 4.0mph /  6.4km/h 90% 0.00in /  0mm
06:45 59.5 °F /  15.3 °C 56.6 °F /  13.7 °C 30.09in /  1018.8hPa NNW 1.0mph /  1.6km/h 3.0mph /  4.8km/h 90% 0.00in /  0mm
06:50 59.4 °F /  15.2 °C 56.5 °F /  13.6 °C 30.09in /  1018.8hPa Calm   3.0mph /  4.8km/h 90% 0.01in /  0.25mm
06:55 59.4 °F /  15.2 °C 56.5 °F /  13.6 °C 30.08in /  1018.5hPa NNW 1.0mph /  1.6km/h 3.0mph /  4.8km/h 90% 0.01in /  0.25mm
07:00 59.6 °F /  15.3 °C 57.0 °F /  13.9 °C 30.09in /  1018.8hPa NNW 2.0mph /  3.2km/h 2.0mph /  3.2km/h 91% 0.01in /  0.25mm
07:05 59.7 °F /  15.4 °C 57.1 °F /  13.9 °C 30.09in /  1018.8hPa Calm   2.0mph /  3.2km/h 91% 0.01in /  0.25mm
07:10 59.8 °F /  15.4 °C 57.2 °F /  14 °C 30.09in /  1018.8hPa Calm   2.0mph /  3.2km/h 91% 0.01in /  0.25mm
07:15 59.8 °F /  15.4 °C 56.9 °F /  13.8 °C 30.09in /  1018.8hPa Calm   1.0mph /  1.6km/h 90% 0.01in /  0.25mm
07:20 60.0 °F /  15.6 °C 57.1 °F /  13.9 °C 30.10in /  1019.2hPa Calm     90% 0.01in /  0.25mm
07:25 60.1 °F /  15.6 °C 57.2 °F /  14 °C 30.10in /  1019.2hPa Calm     90% 0.01in /  0.25mm
07:30 60.2 °F /  15.7 °C 57.3 °F /  14.1 °C 30.10in /  1019.2hPa Calm     90% 0.01in /  0.25mm
07:35 60.3 °F /  15.7 °C 57.4 °F /  14.1 °C 30.10in /  1019.2hPa Calm     90% 0.01in /  0.25mm
07:40 60.4 °F /  15.8 °C 57.5 °F /  14.2 °C 30.11in /  1019.5hPa Calm     90% 0.01in /  0.25mm
07:45 60.5 °F /  15.8 °C 57.2 °F /  14 °C 30.11in /  1019.5hPa Calm     89% 0.01in /  0.25mm
07:50 60.6 °F /  15.9 °C 57.3 °F /  14.1 °C 30.11in /  1019.5hPa Calm     89% 0.00in /  0mm
07:55 60.8 °F /  16 °C 57.5 °F /  14.2 °C 30.11in /  1019.5hPa Calm     89% 0.00in /  0mm
08:00 60.8 °F /  16 °C 57.5 °F /  14.2 °C 30.11in /  1019.5hPa Calm     89% 0.00in /  0mm
08:05 60.7 °F /  15.9 °C 57.1 °F /  13.9 °C 30.12in /  1019.9hPa Calm     88% 0.00in /  0mm
08:10 60.8 °F /  16 °C 57.5 °F /  14.2 °C 30.12in /  1019.9hPa Calm     89% 0.00in /  0mm
08:15 61.0 °F /  16.1 °C 57.7 °F /  14.3 °C 30.12in /  1019.9hPa Calm     89% 0.00in /  0mm
08:20 61.3 °F /  16.3 °C 58.0 °F /  14.4 °C 30.12in /  1019.9hPa Calm     89% 0.00in /  0mm
08:25 61.7 °F /  16.5 °C 58.4 °F /  14.7 °C 30.12in /  1019.9hPa NNW 1.0mph /  1.6km/h 3.0mph /  4.8km/h 89% 0.00in /  0mm
08:30 61.8 °F /  16.6 °C 57.9 °F /  14.4 °C 30.12in /  1019.9hPa NNW 1.0mph /  1.6km/h 5.0mph /  8km/h 87% 0.00in /  0mm
08:35 61.9 °F /  16.6 °C 58.0 °F /  14.4 °C 30.12in /  1019.9hPa ENE 2.0mph /  3.2km/h 6.0mph /  9.7km/h 87% 0.00in /  0mm
08:40 62.0 °F /  16.7 °C 57.8 °F /  14.3 °C 30.13in /  1020.2hPa North 1.0mph /  1.6km/h 5.0mph /  8km/h 86% 0.00in /  0mm
08:45 62.1 °F /  16.7 °C 57.9 °F /  14.4 °C 30.12in /  1019.9hPa NNW 1.0mph /  1.6km/h 5.0mph /  8km/h 86% 0.00in /  0mm
08:50 62.1 °F /  16.7 °C 57.9 °F /  14.4 °C 30.13in /  1020.2hPa NNW 3.0mph /  4.8km/h 6.0mph /  9.7km/h 86% 0.00in /  0mm
08:55 62.2 °F /  16.8 °C 58.0 °F /  14.4 °C 30.13in /  1020.2hPa North 2.0mph /  3.2km/h 5.0mph /  8km/h 86% 0.00in /  0mm
09:00 62.4 °F /  16.9 °C 57.8 °F /  14.3 °C 30.13in /  1020.2hPa NNW 2.0mph /  3.2km/h 5.0mph /  8km/h 85% 0.00in /  0mm
09:05 62.4 °F /  16.9 °C 57.8 °F /  14.3 °C 30.13in /  1020.2hPa NNW 2.0mph /  3.2km/h 6.0mph /  9.7km/h 85% 0.00in /  0mm
09:10 62.5 °F /  16.9 °C 57.6 °F /  14.2 °C 30.14in /  1020.5hPa North 3.0mph /  4.8km/h 9.0mph /  14.5km/h 84% 0.00in /  0mm
09:15 62.6 °F /  17 °C 57.7 °F /  14.3 °C 30.14in /  1020.5hPa North 3.0mph /  4.8km/h 9.0mph /  14.5km/h 84% 0.00in /  0mm
09:20 62.8 °F /  17.1 °C 57.6 °F /  14.2 °C 30.14in /  1020.5hPa North 3.0mph /  4.8km/h 12.0mph /  19.3km/h 83% 0.00in /  0mm
09:25 62.6 °F /  17 °C 56.7 °F /  13.7 °C 30.15in /  1020.9hPa NNE 4.0mph /  6.4km/h 7.0mph /  11.3km/h 81% 0.00in /  0mm
09:30 62.7 °F /  17.1 °C 56.4 °F /  13.6 °C 30.15in /  1020.9hPa North 3.0mph /  4.8km/h 7.0mph /  11.3km/h 80% 0.00in /  0mm
09:35 62.9 °F /  17.2 °C 56.6 °F /  13.7 °C 30.15in /  1020.9hPa North 3.0mph /  4.8km/h 7.0mph /  11.3km/h 80% 0.00in /  0mm
09:40 63.1 °F /  17.3 °C 57.2 °F /  14 °C 30.14in /  1020.5hPa North 3.0mph /  4.8km/h 4.0mph /  6.4km/h 81% 0.00in /  0mm
09:45 62.9 °F /  17.2 °C 56.3 °F /  13.5 °C 30.15in /  1020.9hPa NNE 2.0mph /  3.2km/h 8.0mph /  12.9km/h 79% 0.00in /  0mm
09:50 63.3 °F /  17.4 °C 57.0 °F /  13.9 °C 30.15in /  1020.9hPa NNW 1.0mph /  1.6km/h 10.0mph /  16.1km/h 80% 0.00in /  0mm
09:55 63.6 °F /  17.6 °C 57.0 °F /  13.9 °C 30.15in /  1020.9hPa NW 5.0mph /  8km/h 7.0mph /  11.3km/h 79% 0.00in /  0mm
10:00 63.6 °F /  17.6 °C 57.0 °F /  13.9 °C 30.15in /  1020.9hPa NNW 3.0mph /  4.8km/h 7.0mph /  11.3km/h 79% 0.00in /  0mm
10:05 63.5 °F /  17.5 °C 56.5 °F /  13.6 °C 30.15in /  1020.9hPa NNW 4.0mph /  6.4km/h 12.0mph /  19.3km/h 78% 0.00in /  0mm
10:10 63.0 °F /  17.2 °C 56.0 °F /  13.3 °C 30.15in /  1020.9hPa NW 2.0mph /  3.2km/h 11.0mph /  17.7km/h 78% 0.00in /  0mm
10:15 62.8 °F /  17.1 °C 56.2 °F /  13.4 °C 30.15in /  1020.9hPa NW 4.0mph /  6.4km/h 9.0mph /  14.5km/h 79% 0.00in /  0mm
10:20 63.0 °F /  17.2 °C 56.4 °F /  13.6 °C 30.15in /  1020.9hPa North 4.0mph /  6.4km/h 7.0mph /  11.3km/h 79% 0.00in /  0mm
10:25 63.4 °F /  17.4 °C 56.4 °F /  13.6 °C 30.15in /  1020.9hPa NNW 5.0mph /  8km/h 5.0mph /  8km/h 78% 0.00in /  0mm
10:30 63.8 °F /  17.7 °C 56.8 °F /  13.8 °C 30.16in /  1021.2hPa North 2.0mph /  3.2km/h 6.0mph /  9.7km/h 78% 0.00in /  0mm
10:35 63.9 °F /  17.7 °C 56.5 °F /  13.6 °C 30.16in /  1021.2hPa NNE 2.0mph /  3.2km/h 6.0mph /  9.7km/h 77% 0.00in /  0mm
10:40 64.1 °F /  17.8 °C 56.4 °F /  13.6 °C 30.15in /  1020.9hPa NE 3.0mph /  4.8km/h 10.0mph /  16.1km/h 76% 0.00in /  0mm
10:45 64.5 °F /  18.1 °C 56.8 °F /  13.8 °C 30.16in /  1021.2hPa North 2.0mph /  3.2km/h 8.0mph /  12.9km/h 76% 0.00in /  0mm
10:50 64.2 °F /  17.9 °C 55.7 °F /  13.2 °C 30.16in /  1021.2hPa NE 4.0mph /  6.4km/h 7.0mph /  11.3km/h 74% 0.00in /  0mm
10:55 64.1 °F /  17.8 °C 56.7 °F /  13.7 °C 30.16in /  1021.2hPa ENE 2.0mph /  3.2km/h 4.0mph /  6.4km/h 77% 0.00in /  0mm
11:00 64.2 °F /  17.9 °C 56.1 °F /  13.4 °C 30.17in /  1021.6hPa North 3.0mph /  4.8km/h 6.0mph /  9.7km/h 75% 0.00in /  0mm
11:05 63.8 °F /  17.7 °C 55.7 °F /  13.2 °C 30.17in /  1021.6hPa North 2.0mph /  3.2km/h 8.0mph /  12.9km/h 75% 0.00in /  0mm
11:10 63.2 °F /  17.3 °C 55.9 °F /  13.3 °C 30.17in /  1021.6hPa North 3.0mph /  4.8km/h 8.0mph /  12.9km/h 77% 0.00in /  0mm
11:15 63.2 °F /  17.3 °C 55.9 °F /  13.3 °C 30.17in /  1021.6hPa North 2.0mph /  3.2km/h 5.0mph /  8km/h 77% 0.00in /  0mm
11:20 63.2 °F /  17.3 °C 55.9 °F /  13.3 °C 30.17in /  1021.6hPa NNE 4.0mph /  6.4km/h 5.0mph /  8km/h 77% 0.00in /  0mm
11:25 63.1 °F /  17.3 °C 55.8 °F /  13.2 °C 30.17in /  1021.6hPa NNE 2.0mph /  3.2km/h 5.0mph /  8km/h 77% 0.00in /  0mm
11:30 63.4 °F /  17.4 °C 56.1 °F /  13.4 °C 30.17in /  1021.6hPa North 2.0mph /  3.2km/h 7.0mph /  11.3km/h 77% 0.00in /  0mm
11:35 63.7 °F /  17.6 °C 56.0 °F /  13.3 °C 30.17in /  1021.6hPa NNE 2.0mph /  3.2km/h 7.0mph /  11.3km/h 76% 0.00in /  0mm
11:40 64.1 °F /  17.8 °C 56.4 °F /  13.6 °C 30.17in /  1021.6hPa NE 3.0mph /  4.8km/h 9.0mph /  14.5km/h 76% 0.00in /  0mm
11:45 64.6 °F /  18.1 °C 56.5 °F /  13.6 °C 30.18in /  1021.9hPa NE 2.0mph /  3.2km/h 9.0mph /  14.5km/h 75% 0.00in /  0mm
11:50 64.7 °F /  18.2 °C 56.2 °F /  13.4 °C 30.18in /  1021.9hPa Calm   7.0mph /  11.3km/h 74% 0.00in /  0mm
11:55 64.7 °F /  18.2 °C 56.2 °F /  13.4 °C 30.18in /  1021.9hPa NNE 2.0mph /  3.2km/h 7.0mph /  11.3km/h 74% 0.00in /  0mm
12:00 64.4 °F /  18 °C 56.3 °F /  13.5 °C 30.18in /  1021.9hPa NNE 2.0mph /  3.2km/h 5.0mph /  8km/h 75% 0.00in /  0mm
12:05 64.0 °F /  17.8 °C 55.9 °F /  13.3 °C 30.18in /  1021.9hPa NE 2.0mph /  3.2km/h 8.0mph /  12.9km/h 75% 0.00in /  0mm
12:10 63.8 °F /  17.7 °C 56.1 °F /  13.4 °C 30.18in /  1021.9hPa Calm   4.0mph /  6.4km/h 76% 0.00in /  0mm
12:15 63.7 °F /  17.6 °C 56.0 °F /  13.3 °C 30.18in /  1021.9hPa NNW 4.0mph /  6.4km/h 6.0mph /  9.7km/h 76% 0.00in /  0mm
12:20 63.9 °F /  17.7 °C 56.2 °F /  13.4 °C 30.18in /  1021.9hPa NE 4.0mph /  6.4km/h 5.0mph /  8km/h 76% 0.00in /  0mm
12:25 64.2 °F /  17.9 °C 56.5 °F /  13.6 °C 30.18in /  1021.9hPa North 2.0mph /  3.2km/h 6.0mph /  9.7km/h 76% 0.00in /  0mm
12:30 64.6 °F /  18.1 °C 56.5 °F /  13.6 °C 30.19in /  1022.2hPa NNE 2.0mph /  3.2km/h 6.0mph /  9.7km/h 75% 0.00in /  0mm
12:35 65.0 °F /  18.3 °C 56.9 °F /  13.8 °C 30.18in /  1021.9hPa North 1.0mph /  1.6km/h 6.0mph /  9.7km/h 75% 0.00in /  0mm
12:40 64.3 °F /  17.9 °C 55.8 °F /  13.2 °C 30.19in /  1022.2hPa NNE 1.0mph /  1.6km/h 6.0mph /  9.7km/h 74% 0.00in /  0mm
12:45 63.9 °F /  17.7 °C 56.2 °F /  13.4 °C 30.19in /  1022.2hPa North 4.0mph /  6.4km/h 5.0mph /  8km/h 76% 0.00in /  0mm
12:50 64.0 °F /  17.8 °C 55.9 °F /  13.3 °C 30.19in /  1022.2hPa NNE 2.0mph /  3.2km/h 4.0mph /  6.4km/h 75% 0.00in /  0mm
12:55 64.3 °F /  17.9 °C 56.6 °F /  13.7 °C 30.19in /  1022.2hPa NNE 2.0mph /  3.2km/h 9.0mph /  14.5km/h 76% 0.00in /  0mm
13:00 64.3 °F /  17.9 °C 55.8 °F /  13.2 °C 30.19in /  1022.2hPa NNE 3.0mph /  4.8km/h 9.0mph /  14.5km/h 74% 0.00in /  0mm
13:05 64.2 °F /  17.9 °C 55.7 °F /  13.2 °C 30.19in /  1022.2hPa NE 1.0mph /  1.6km/h 8.0mph /  12.9km/h 74% 0.00in /  0mm
13:10 64.5 °F /  18.1 °C 56.4 °F /  13.6 °C 30.19in /  1022.2hPa NW 1.0mph /  1.6km/h 5.0mph /  8km/h 75% 0.00in /  0mm
13:15 64.5 °F /  18.1 °C 56.4 °F /  13.6 °C 30.20in /  1022.6hPa North 1.0mph /  1.6km/h 9.0mph /  14.5km/h 75% 0.00in /  0mm
13:20 64.1 °F /  17.8 °C 56.0 °F /  13.3 °C 30.20in /  1022.6hPa North 3.0mph /  4.8km/h 9.0mph /  14.5km/h 75% 0.00in /  0mm
13:25 63.9 °F /  17.7 °C 56.2 °F /  13.4 °C 30.20in /  1022.6hPa North 3.0mph /  4.8km/h 8.0mph /  12.9km/h 76% 0.00in /  0mm
13:30 63.8 °F /  17.7 °C 56.1 °F /  13.4 °C 30.20in /  1022.6hPa North 1.0mph /  1.6km/h 8.0mph /  12.9km/h 76% 0.00in /  0mm
13:35 64.1 °F /  17.8 °C 56.7 °F /  13.7 °C 30.20in /  1022.6hPa Calm   3.0mph /  4.8km/h 77% 0.00in /  0mm
13:40 65.0 °F /  18.3 °C 56.5 °F /  13.6 °C 30.20in /  1022.6hPa ESE 2.0mph /  3.2km/h 5.0mph /  8km/h 74% 0.00in /  0mm
13:45 65.6 °F /  18.7 °C 57.1 °F /  13.9 °C 30.19in /  1022.2hPa NE 4.0mph /  6.4km/h 6.0mph /  9.7km/h 74% 0.00in /  0mm
13:50 66.6 °F /  19.2 °C 57.7 °F /  14.3 °C 30.20in /  1022.6hPa NNW 3.0mph /  4.8km/h 7.0mph /  11.3km/h 73% 0.00in /  0mm
13:55 67.4 °F /  19.7 °C 57.7 °F /  14.3 °C 30.20in /  1022.6hPa NNE 2.0mph /  3.2km/h 8.0mph /  12.9km/h 71% 0.00in /  0mm
14:00 66.6 °F /  19.2 °C 56.1 °F /  13.4 °C 30.20in /  1022.6hPa NNE 2.0mph /  3.2km/h 8.0mph /  12.9km/h 69% 0.00in /  0mm
14:05 66.4 °F /  19.1 °C 56.3 °F /  13.5 °C 30.20in /  1022.6hPa NE 3.0mph /  4.8km/h 8.0mph /  12.9km/h 70% 0.00in /  0mm
14:10 65.8 °F /  18.8 °C 56.5 °F /  13.6 °C 30.20in /  1022.6hPa Calm   4.0mph /  6.4km/h 72% 0.00in /  0mm
14:15 65.4 °F /  18.6 °C 55.7 °F /  13.2 °C 30.20in /  1022.6hPa ENE 4.0mph /  6.4km/h 9.0mph /  14.5km/h 71% 0.00in /  0mm
14:20 65.2 °F /  18.4 °C 56.3 °F /  13.5 °C 30.20in /  1022.6hPa ENE 1.0mph /  1.6km/h 4.0mph /  6.4km/h 73% 0.00in /  0mm
14:25 65.4 °F /  18.6 °C 56.9 °F /  13.8 °C 30.20in /  1022.6hPa Calm   4.0mph /  6.4km/h 74% 0.00in /  0mm
14:30 65.2 °F /  18.4 °C 56.3 °F /  13.5 °C 30.20in /  1022.6hPa NNW 3.0mph /  4.8km/h 5.0mph /  8km/h 73% 0.00in /  0mm
14:35 65.5 °F /  18.6 °C 57.0 °F /  13.9 °C 30.20in /  1022.6hPa Calm   6.0mph /  9.7km/h 74% 0.00in /  0mm
14:40 66.8 °F /  19.3 °C 58.2 °F /  14.6 °C 30.20in /  1022.6hPa NNW 2.0mph /  3.2km/h 6.0mph /  9.7km/h 74% 0.00in /  0mm
14:45 67.7 °F /  19.8 °C 58.0 °F /  14.4 °C 30.20in /  1022.6hPa NNE 3.0mph /  4.8km/h 7.0mph /  11.3km/h 71% 0.00in /  0mm
14:50 68.0 °F /  20 °C 57.4 °F /  14.1 °C 30.20in /  1022.6hPa NNE 2.0mph /  3.2km/h 7.0mph /  11.3km/h 69% 0.00in /  0mm
14:55 68.1 °F /  20.1 °C 57.9 °F /  14.4 °C 30.20in /  1022.6hPa NNE 3.0mph /  4.8km/h 7.0mph /  11.3km/h 70% 0.00in /  0mm
15:00 68.0 °F /  20 °C 58.2 °F /  14.6 °C 30.20in /  1022.6hPa NE 3.0mph /  4.8km/h 9.0mph /  14.5km/h 71% 0.00in /  0mm
15:05 68.7 °F /  20.4 °C 58.5 °F /  14.7 °C 30.19in /  1022.2hPa ENE 9.0mph /  14.5km/h 9.0mph /  14.5km/h 70% 0.00in /  0mm
15:10 69.0 °F /  20.6 °C 58.4 °F /  14.7 °C 30.19in /  1022.2hPa North 4.0mph /  6.4km/h 10.0mph /  16.1km/h 69% 0.00in /  0mm
15:15 68.6 °F /  20.3 °C 57.6 °F /  14.2 °C 30.19in /  1022.2hPa NE 4.0mph /  6.4km/h 10.0mph /  16.1km/h 68% 0.00in /  0mm
15:20 68.4 °F /  20.2 °C 56.6 °F /  13.7 °C 30.20in /  1022.6hPa NE 5.0mph /  8km/h 14.0mph /  22.5km/h 66% 0.00in /  0mm
15:25 68.1 °F /  20.1 °C 56.7 °F /  13.7 °C 30.20in /  1022.6hPa NE 5.0mph /  8km/h 11.0mph /  17.7km/h 67% 0.00in /  0mm
15:30 68.2 °F /  20.1 °C 57.2 °F /  14 °C 30.19in /  1022.2hPa NE 4.0mph /  6.4km/h 7.0mph /  11.3km/h 68% 0.00in /  0mm
15:35 68.0 °F /  20 °C 56.6 °F /  13.7 °C 30.19in /  1022.2hPa NE 7.0mph /  11.3km/h 8.0mph /  12.9km/h 67% 0.00in /  0mm
15:40 67.7 °F /  19.8 °C 55.9 °F /  13.3 °C 30.20in /  1022.6hPa ENE 2.0mph /  3.2km/h 8.0mph /  12.9km/h 66% 0.00in /  0mm
15:45 67.9 °F /  19.9 °C 56.9 °F /  13.8 °C 30.20in /  1022.6hPa ENE 4.0mph /  6.4km/h 9.0mph /  14.5km/h 68% 0.00in /  0mm
15:50 68.1 °F /  20.1 °C 57.9 °F /  14.4 °C 30.20in /  1022.6hPa NE 3.0mph /  4.8km/h 9.0mph /  14.5km/h 70% 0.00in /  0mm
15:55 68.7 °F /  20.4 °C 58.1 °F /  14.5 °C 30.20in /  1022.6hPa NNE 2.0mph /  3.2km/h 7.0mph /  11.3km/h 69% 0.00in /  0mm
16:00 68.6 °F /  20.3 °C 57.6 °F /  14.2 °C 30.20in /  1022.6hPa ESE 3.0mph /  4.8km/h 10.0mph /  16.1km/h 68% 0.00in /  0mm
16:05 68.4 °F /  20.2 °C 56.6 °F /  13.7 °C 30.20in /  1022.6hPa ENE 7.0mph /  11.3km/h 14.0mph /  22.5km/h 66% 0.00in /  0mm
16:10 69.0 °F /  20.6 °C 58.0 °F /  14.4 °C 30.19in /  1022.2hPa North 3.0mph /  4.8km/h 7.0mph /  11.3km/h 68% 0.00in /  0mm
16:15 68.9 °F /  20.5 °C 57.5 °F /  14.2 °C 30.19in /  1022.2hPa NNE 3.0mph /  4.8km/h 11.0mph /  17.7km/h 67% 0.00in /  0mm
16:20 68.7 °F /  20.4 °C 57.7 °F /  14.3 °C 30.20in /  1022.6hPa NE 4.0mph /  6.4km/h 11.0mph /  17.7km/h 68% 0.00in /  0mm
16:25 68.3 °F /  20.2 °C 57.3 °F /  14.1 °C 30.20in /  1022.6hPa NE 4.0mph /  6.4km/h 11.0mph /  17.7km/h 68% 0.00in /  0mm
16:30 68.3 °F /  20.2 °C 57.3 °F /  14.1 °C 30.20in /  1022.6hPa Calm   7.0mph /  11.3km/h 68% 0.00in /  0mm
16:35 68.6 °F /  20.3 °C 57.2 °F /  14 °C 30.20in /  1022.6hPa ENE 8.0mph /  12.9km/h 11.0mph /  17.7km/h 67% 0.00in /  0mm
16:40 69.0 °F /  20.6 °C 57.6 °F /  14.2 °C 30.20in /  1022.6hPa NE 3.0mph /  4.8km/h 11.0mph /  17.7km/h 67% 0.00in /  0mm
16:45 69.5 °F /  20.8 °C 57.6 °F /  14.2 °C 30.20in /  1022.6hPa ENE 5.0mph /  8km/h 7.0mph /  11.3km/h 66% 0.00in /  0mm
16:50 68.8 °F /  20.4 °C 57.0 °F /  13.9 °C 30.20in /  1022.6hPa NE 5.0mph /  8km/h 9.0mph /  14.5km/h 66% 0.00in /  0mm
16:55 69.0 °F /  20.6 °C 58.0 °F /  14.4 °C 30.20in /  1022.6hPa ENE 5.0mph /  8km/h 9.0mph /  14.5km/h 68% 0.00in /  0mm
17:00 69.7 °F /  20.9 °C 57.4 °F /  14.1 °C 30.20in /  1022.6hPa NE 3.0mph /  4.8km/h 8.0mph /  12.9km/h 65% 0.00in /  0mm
17:05 70.4 °F /  21.3 °C 58.5 °F /  14.7 °C 30.20in /  1022.6hPa ENE 4.0mph /  6.4km/h 8.0mph /  12.9km/h 66% 0.00in /  0mm
17:10 70.1 °F /  21.2 °C 57.8 °F /  14.3 °C 30.20in /  1022.6hPa ENE 3.0mph /  4.8km/h 8.0mph /  12.9km/h 65% 0.00in /  0mm
17:15 70.2 °F /  21.2 °C 57.9 °F /  14.4 °C 30.21in /  1022.9hPa NE 2.0mph /  3.2km/h 6.0mph /  9.7km/h 65% 0.00in /  0mm
17:20 69.3 °F /  20.7 °C 57.5 °F /  14.2 °C 30.21in /  1022.9hPa NE 2.0mph /  3.2km/h 9.0mph /  14.5km/h 66% 0.00in /  0mm
17:25 68.9 °F /  20.5 °C 57.1 °F /  13.9 °C 30.21in /  1022.9hPa NE 3.0mph /  4.8km/h 9.0mph /  14.5km/h 66% 0.00in /  0mm
17:30 70.3 °F /  21.3 °C 58.8 °F /  14.9 °C 30.21in /  1022.9hPa ENE 7.0mph /  11.3km/h 7.0mph /  11.3km/h 67% 0.00in /  0mm
17:35 69.5 °F /  20.8 °C 56.8 °F /  13.8 °C 30.21in /  1022.9hPa NNW 3.0mph /  4.8km/h 7.0mph /  11.3km/h 64% 0.00in /  0mm
17:40 69.1 °F /  20.6 °C 56.8 °F /  13.8 °C 30.21in /  1022.9hPa North 1.0mph /  1.6km/h 4.0mph /  6.4km/h 65% 0.00in /  0mm
17:45 68.6 °F /  20.3 °C 56.8 °F /  13.8 °C 30.20in /  1022.6hPa ENE 4.0mph /  6.4km/h 5.0mph /  8km/h 66% 0.00in /  0mm
17:50 68.7 °F /  20.4 °C 56.9 °F /  13.8 °C 30.20in /  1022.6hPa NE 2.0mph /  3.2km/h 8.0mph /  12.9km/h 66% 0.00in /  0mm
17:55 68.7 °F /  20.4 °C 56.5 °F /  13.6 °C 30.20in /  1022.6hPa ENE 3.0mph /  4.8km/h 7.0mph /  11.3km/h 65% 0.00in /  0mm
18:00 68.5 °F /  20.3 °C 56.7 °F /  13.7 °C 30.21in /  1022.9hPa ENE 3.0mph /  4.8km/h 7.0mph /  11.3km/h 66% 0.00in /  0mm
18:05 68.6 °F /  20.3 °C 57.2 °F /  14 °C 30.20in /  1022.6hPa ENE 3.0mph /  4.8km/h 6.0mph /  9.7km/h 67% 0.00in /  0mm
18:10 68.6 °F /  20.3 °C 57.6 °F /  14.2 °C 30.20in /  1022.6hPa ENE 2.0mph /  3.2km/h 5.0mph /  8km/h 68% 0.00in /  0mm
18:15 68.5 °F /  20.3 °C 56.7 °F /  13.7 °C 30.20in /  1022.6hPa ENE 2.0mph /  3.2km/h 5.0mph /  8km/h 66% 0.00in /  0mm
18:20 68.3 °F /  20.2 °C 56.5 °F /  13.6 °C 30.20in /  1022.6hPa ENE 2.0mph /  3.2km/h 7.0mph /  11.3km/h 66% 0.00in /  0mm
18:25 68.9 °F /  20.5 °C 57.1 °F /  13.9 °C 30.20in /  1022.6hPa ENE 1.0mph /  1.6km/h 5.0mph /  8km/h 66% 0.00in /  0mm
18:30 68.9 °F /  20.5 °C 57.1 °F /  13.9 °C 30.21in /  1022.9hPa ENE 1.0mph /  1.6km/h 5.0mph /  8km/h 66% 0.00in /  0mm
18:35 68.6 °F /  20.3 °C 56.8 °F /  13.8 °C 30.21in /  1022.9hPa NE 2.0mph /  3.2km/h 7.0mph /  11.3km/h 66% 0.00in /  0mm
18:40 68.3 °F /  20.2 °C 56.5 °F /  13.6 °C 30.21in /  1022.9hPa East 2.0mph /  3.2km/h 7.0mph /  11.3km/h 66% 0.00in /  0mm
18:45 68.6 °F /  20.3 °C 57.2 °F /  14 °C 30.21in /  1022.9hPa NE 3.0mph /  4.8km/h 5.0mph /  8km/h 67% 0.00in /  0mm
18:50 68.8 °F /  20.4 °C 57.0 °F /  13.9 °C 30.21in /  1022.9hPa ENE 3.0mph /  4.8km/h 9.0mph /  14.5km/h 66% 0.00in /  0mm
18:55 68.8 °F /  20.4 °C 57.0 °F /  13.9 °C 30.20in /  1022.6hPa Calm   4.0mph /  6.4km/h 66% 0.00in /  0mm
19:00 69.0 °F /  20.6 °C 56.7 °F /  13.7 °C 30.21in /  1022.9hPa NE 2.0mph /  3.2km/h 5.0mph /  8km/h 65% 0.00in /  0mm
19:05 69.1 °F /  20.6 °C 56.8 °F /  13.8 °C 30.21in /  1022.9hPa ENE 1.0mph /  1.6km/h 6.0mph /  9.7km/h 65% 0.00in /  0mm
19:10 68.9 °F /  20.5 °C 57.5 °F /  14.2 °C 30.21in /  1022.9hPa ENE 2.0mph /  3.2km/h 6.0mph /  9.7km/h 67% 0.00in /  0mm
19:15 68.7 °F /  20.4 °C 56.5 °F /  13.6 °C 30.21in /  1022.9hPa Calm     65% 0.00in /  0mm
19:20 68.7 °F /  20.4 °C 56.9 °F /  13.8 °C 30.21in /  1022.9hPa Calm     66% 0.00in /  0mm
19:25 68.5 °F /  20.3 °C 56.7 °F /  13.7 °C 30.21in /  1022.9hPa East 3.0mph /  4.8km/h 5.0mph /  8km/h 66% 0.00in /  0mm
19:30 68.3 °F /  20.2 °C 56.5 °F /  13.6 °C 30.21in /  1022.9hPa East 2.0mph /  3.2km/h 5.0mph /  8km/h 66% 0.00in /  0mm
19:35 68.3 °F /  20.2 °C 57.3 °F /  14.1 °C 30.21in /  1022.9hPa ESE 1.0mph /  1.6km/h 3.0mph /  4.8km/h 68% 0.00in /  0mm
19:40 68.2 °F /  20.1 °C 57.2 °F /  14 °C 30.21in /  1022.9hPa Calm   2.0mph /  3.2km/h 68% 0.00in /  0mm
19:45 68.1 °F /  20.1 °C 57.1 °F /  13.9 °C 30.22in /  1023.2hPa Calm   2.0mph /  3.2km/h 68% 0.00in /  0mm
19:50 67.9 °F /  19.9 °C 56.5 °F /  13.6 °C 30.22in /  1023.2hPa South 2.0mph /  3.2km/h 3.0mph /  4.8km/h 67% 0.00in /  0mm
19:55 67.7 °F /  19.8 °C 56.3 °F /  13.5 °C 30.21in /  1022.9hPa East 2.0mph /  3.2km/h 3.0mph /  4.8km/h 67% 0.00in /  0mm
20:00 67.7 °F /  19.8 °C 56.3 °F /  13.5 °C 30.21in /  1022.9hPa East 1.0mph /  1.6km/h 3.0mph /  4.8km/h 67% 0.00in /  0mm
20:05 67.5 °F /  19.7 °C 56.2 °F /  13.4 °C 30.21in /  1022.9hPa ENE 2.0mph /  3.2km/h 2.0mph /  3.2km/h 67% 0.00in /  0mm
20:10 67.4 °F /  19.7 °C 56.5 °F /  13.6 °C 30.21in /  1022.9hPa Calm   3.0mph /  4.8km/h 68% 0.00in /  0mm
20:15 67.3 °F /  19.6 °C 56.4 °F /  13.6 °C 30.21in /  1022.9hPa Calm   3.0mph /  4.8km/h 68% 0.00in /  0mm
20:20 67.1 °F /  19.5 °C 56.6 °F /  13.7 °C 30.21in /  1022.9hPa Calm     69% 0.00in /  0mm
20:25 66.8 °F /  19.3 °C 56.3 °F /  13.5 °C 30.22in /  1023.2hPa Calm   3.0mph /  4.8km/h 69% 0.00in /  0mm
20:30 66.5 °F /  19.2 °C 56.4 °F /  13.6 °C 30.22in /  1023.2hPa Calm   3.0mph /  4.8km/h 70% 0.00in /  0mm
20:35 66.4 °F /  19.1 °C 56.3 °F /  13.5 °C 30.22in /  1023.2hPa Calm     70% 0.00in /  0mm
20:40 66.1 °F /  18.9 °C 56.0 °F /  13.3 °C 30.22in /  1023.2hPa Calm   2.0mph /  3.2km/h 70% 0.00in /  0mm
20:45 65.9 °F /  18.8 °C 56.2 °F /  13.4 °C 30.22in /  1023.2hPa Calm   2.0mph /  3.2km/h 71% 0.00in /  0mm
20:50 65.7 °F /  18.7 °C 56.0 °F /  13.3 °C 30.21in /  1022.9hPa Calm     71% 0.00in /  0mm
20:55 65.4 °F /  18.6 °C 56.1 °F /  13.4 °C 30.21in /  1022.9hPa Calm     72% 0.00in /  0mm
21:00 65.2 °F /  18.4 °C 55.9 °F /  13.3 °C 30.21in /  1022.9hPa Calm     72% 0.00in /  0mm
21:05 65.0 °F /  18.3 °C 56.1 °F /  13.4 °C 30.21in /  1022.9hPa Calm     73% 0.00in /  0mm
21:10 64.8 °F /  18.2 °C 55.9 °F /  13.3 °C 30.22in /  1023.2hPa Calm     73% 0.00in /  0mm
21:15 64.7 °F /  18.2 °C 55.8 °F /  13.2 °C 30.22in /  1023.2hPa Calm     73% 0.00in /  0mm
21:20 64.5 °F /  18.1 °C 56.0 °F /  13.3 °C 30.22in /  1023.2hPa Calm     74% 0.00in /  0mm
21:25 64.3 °F /  17.9 °C 56.2 °F /  13.4 °C 30.22in /  1023.2hPa Calm     75% 0.00in /  0mm
21:30 64.1 °F /  17.8 °C 56.4 °F /  13.6 °C 30.22in /  1023.2hPa Calm     76% 0.00in /  0mm
21:35 63.9 °F /  17.7 °C 56.2 °F /  13.4 °C 30.22in /  1023.2hPa Calm     76% 0.00in /  0mm
21:40 63.8 °F /  17.7 °C 56.4 °F /  13.6 °C 30.22in /  1023.2hPa Calm   3.0mph /  4.8km/h 77% 0.00in /  0mm
21:45 63.6 °F /  17.6 °C 56.3 °F /  13.5 °C 30.22in /  1023.2hPa Calm   3.0mph /  4.8km/h 77% 0.00in /  0mm
21:50 63.4 °F /  17.4 °C 56.4 °F /  13.6 °C 30.22in /  1023.2hPa Calm   2.0mph /  3.2km/h 78% 0.00in /  0mm
21:55 63.2 °F /  17.3 °C 56.2 °F /  13.4 °C 30.23in /  1023.6hPa Calm   2.0mph /  3.2km/h 78% 0.00in /  0mm
22:00 63.2 °F /  17.3 °C 56.2 °F /  13.4 °C 30.23in /  1023.6hPa Calm   2.0mph /  3.2km/h 78% 0.00in /  0mm
22:05 63.1 °F /  17.3 °C 56.1 °F /  13.4 °C 30.23in /  1023.6hPa Calm     78% 0.00in /  0mm
22:10 62.8 °F /  17.1 °C 55.8 °F /  13.2 °C 30.23in /  1023.6hPa Calm     78% 0.00in /  0mm
22:15 62.2 °F /  16.8 °C 55.6 °F /  13.1 °C 30.23in /  1023.6hPa Calm     79% 0.00in /  0mm
22:20 61.7 °F /  16.5 °C 55.5 °F /  13.1 °C 30.23in /  1023.6hPa Calm     80% 0.00in /  0mm
22:25 61.4 °F /  16.3 °C 55.5 °F /  13.1 °C 30.22in /  1023.2hPa Calm     81% 0.00in /  0mm
22:30 61.6 °F /  16.4 °C 56.0 °F /  13.3 °C 30.23in /  1023.6hPa Calm     82% 0.00in /  0mm
22:35 61.2 °F /  16.2 °C 55.7 °F /  13.2 °C 30.23in /  1023.6hPa Calm     82% 0.00in /  0mm
22:40 60.8 °F /  16 °C 55.3 °F /  12.9 °C 30.22in /  1023.2hPa Calm     82% 0.00in /  0mm
22:45 60.7 °F /  15.9 °C 55.5 °F /  13.1 °C 30.22in /  1023.2hPa Calm     83% 0.00in /  0mm
22:50 60.4 °F /  15.8 °C 55.2 °F /  12.9 °C 30.22in /  1023.2hPa Calm     83% 0.00in /  0mm
22:55 60.2 °F /  15.7 °C 55.3 °F /  12.9 °C 30.23in /  1023.6hPa Calm     84% 0.00in /  0mm
23:00 60.0 °F /  15.6 °C 55.2 °F /  12.9 °C 30.23in /  1023.6hPa Calm     84% 0.00in /  0mm
23:05 59.9 °F /  15.5 °C 55.1 °F /  12.8 °C 30.22in /  1023.2hPa Calm     84% 0.00in /  0mm
23:10 59.9 °F /  15.5 °C 55.4 °F /  13 °C 30.22in /  1023.2hPa Calm     85% 0.00in /  0mm
23:15 59.7 °F /  15.4 °C 55.2 °F /  12.9 °C 30.22in /  1023.2hPa Calm     85% 0.00in /  0mm
23:20 59.6 °F /  15.3 °C 55.1 °F /  12.8 °C 30.22in /  1023.2hPa Calm     85% 0.00in /  0mm
23:25 59.4 °F /  15.2 °C 54.9 °F /  12.7 °C 30.22in /  1023.2hPa Calm     85% 0.00in /  0mm
23:30 59.1 °F /  15.1 °C 54.6 °F /  12.6 °C 30.22in /  1023.2hPa Calm     85% 0.00in /  0mm
23:35 58.9 °F /  14.9 °C 54.7 °F /  12.6 °C 30.22in /  1023.2hPa Calm     86% 0.00in /  0mm
23:40 58.8 °F /  14.9 °C 54.9 °F /  12.7 °C 30.22in /  1023.2hPa Calm     87% 0.00in /  0mm
23:45 58.7 °F /  14.8 °C 54.5 °F /  12.5 °C 30.23in /  1023.6hPa Calm     86% 0.00in /  0mm
23:50 58.6 °F /  14.8 °C 54.7 °F /  12.6 °C 30.23in /  1023.6hPa Calm     87% 0.00in /  0mm
23:55 58.4 °F /  14.7 °C 54.5 °F /  12.5 °C 30.23in /  1023.6hPa Calm     87% 0.00in /  0mm
Buffalo, New York, USA
Compliments of Weather Underground - 2.5 mb